Terminal Aerodrome Forecast
Issued by NWS

Home | Current Version | Previous Version | Text Only | Print | Product List | Glossary On
Versions: 1 2 3 4 5 6 7 8 9 10 11 12 13 14 15 16 17 18 19 20 21 22 23
000
FTUS43 KIND 210800 AAB
TAFLAF
TAF AMD
KLAF 210820Z 2108/2206 32004KT 6SM BR SCT050
     FM211500 35009KT P6SM BKN035
     FM212000 02006KT P6SM SCT035
     FM220200 03004KT P6SM SKC
      AMD LTD TO CLD VIS AND WIND TIL 211300=

USA.gov is the U.S. government's official web portal to all federal, state and local government web resources and services.